Time;durP1;ratioP1;P1;durP2;ratioP2;P2;SDS_P1;SDS_P2;PMS_P1;PMS_P2;Temp;Humidity;BMP_temperature;BMP_pressure;BME280_temperature;BME280_humidity;BME280_pressure;Samples;Min_cycle;Max_cycle;Signal;HPM_P1;HPM_P2
2022/04/30 00:00:47;;;;;;;11.52;5.40;;;;;;;8.23;54.84;101994.91;2100680;27;20294;-65
2022/04/30 00:01:54;;;;;;;10.13;4.93;;;;;;;8.23;55.23;101995.75;2099625;28;20301;-65
2022/04/30 00:02:58;;;;;;;13.93;5.03;;;;;;;8.26;55.19;102002.50;2099792;27;20290;-65
2022/04/30 00:04:02;;;;;;;9.50;5.22;;;;;;;8.26;55.20;101997.13;2116786;27;20636;-66
2022/04/30 00:05:12;;;;;;;11.88;4.95;;;;;;;8.26;55.20;101991.78;2115602;27;20315;-65
2022/04/30 00:06:18;;;;;;;11.65;4.78;;;;;;;8.25;55.45;101990.97;2117007;27;20288;-65
2022/04/30 00:07:22;;;;;;;11.32;5.95;;;;;;;8.26;55.61;101997.13;2107633;28;20293;-65
2022/04/30 00:08:25;;;;;;;10.63;5.15;;;;;;;8.25;55.96;101998.19;2108491;28;20294;-65
2022/04/30 00:09:28;;;;;;;14.07;4.97;;;;;;;8.26;55.37;101999.81;2116378;27;20305;-66
2022/04/30 00:10:31;;;;;;;11.23;5.18;;;;;;;8.26;55.75;101994.44;2116526;27;20295;-65
2022/04/30 00:11:34;;;;;;;9.85;4.63;;;;;;;8.26;55.77;101994.44;2115594;27;20396;-65
2022/04/30 00:12:36;;;;;;;12.35;4.70;;;;;;;8.28;55.60;101995.06;2114614;27;20281;-68
2022/04/30 00:13:42;;;;;;;9.63;4.60;;;;;;;8.26;55.23;101995.31;2116237;27;20284;-65
2022/04/30 00:14:49;;;;;;;7.63;4.15;;;;;;;8.25;55.20;101990.16;2115688;27;20284;-65
2022/04/30 00:15:51;;;;;;;12.85;5.00;;;;;;;8.26;55.36;101994.44;2115646;27;20289;-64
2022/04/30 00:16:59;;;;;;;10.32;4.13;;;;;;;8.25;55.19;101984.78;2115682;27;20399;-65
2022/04/30 00:18:05;;;;;;;10.75;4.25;;;;;;;8.24;54.65;101986.66;2116445;27;20386;-65
2022/04/30 00:19:10;;;;;;;9.77;4.10;;;;;;;8.25;54.74;101982.91;2116643;27;20684;-65
2022/04/30 00:20:16;;;;;;;10.55;4.90;;;;;;;8.25;54.28;101990.16;2116509;27;20308;-65
2022/04/30 00:21:22;;;;;;;13.07;4.65;;;;;;;8.26;54.07;101983.75;2090695;28;20284;-65
2022/04/30 00:22:29;;;;;;;9.73;3.75;;;;;;;8.24;53.59;101980.50;2084263;28;20359;-65
2022/04/30 00:23:32;;;;;;;8.60;3.67;;;;;;;8.26;53.80;101989.94;2108245;28;20305;-65
2022/04/30 00:24:39;;;;;;;8.95;4.07;;;;;;;8.27;53.88;101985.38;2116915;27;20289;-65
2022/04/30 00:25:41;;;;;;;7.20;4.05;;;;;;;8.29;53.74;101988.63;2116651;27;20312;-66
2022/04/30 00:26:43;;;;;;;6.63;3.38;;;;;;;8.29;53.23;101988.63;2116293;27;20585;-64
2022/04/30 00:27:45;;;;;;;7.57;3.33;;;;;;;8.35;53.22;101982.38;2106411;27;20270;-65
2022/04/30 00:28:52;;;;;;;10.50;3.65;;;;;;;8.38;52.20;101987.31;2108168;28;20301;-65
2022/04/30 00:29:58;;;;;;;10.65;3.05;;;;;;;8.42;51.94;101984.97;2115825;27;20779;-65
2022/04/30 00:31:04;;;;;;;11.75;4.53;;;;;;;8.46;52.67;101981.63;2116857;27;20269;-65
2022/04/30 00:32:08;;;;;;;7.72;3.97;;;;;;;8.46;52.56;101984.31;2108826;27;20043;-65
2022/04/30 00:33:12;;;;;;;12.48;4.03;;;;;;;8.48;52.76;101987.59;2108579;28;20286;-64
2022/04/30 00:34:17;;;;;;;7.50;4.10;;;;;;;8.49;52.38;101983.84;2103761;28;20297;-65
2022/04/30 00:35:20;;;;;;;7.03;3.60;;;;;;;8.50;52.59;101982.78;2096107;28;20294;-65
2022/04/30 00:36:22;;;;;;;7.13;3.78;;;;;;;8.53;52.48;101984.22;2107087;28;20294;-65
2022/04/30 00:37:26;;;;;;;11.80;3.72;;;;;;;8.55;52.10;101990.97;2115989;27;20285;-65
2022/04/30 00:38:28;;;;;;;5.80;3.47;;;;;;;8.54;51.90;101986.69;2115533;27;20284;-65
2022/04/30 00:39:35;;;;;;;7.88;3.38;;;;;;;8.55;51.53;101988.31;2115461;27;20764;-65
2022/04/30 00:40:37;;;;;;;10.70;3.30;;;;;;;8.54;51.91;101978.63;2116552;27;20284;-65
2022/04/30 00:41:46;;;;;;;6.93;3.47;;;;;;;8.54;51.95;101981.31;2116277;27;20289;-64
2022/04/30 00:42:49;;;;;;;6.70;3.42;;;;;;;8.54;51.18;101975.94;2114856;27;20282;-65
2022/04/30 00:43:54;;;;;;;7.50;3.47;;;;;;;8.55;51.18;101982.94;2112081;27;20494;-65
2022/04/30 00:44:56;;;;;;;10.10;3.95;;;;;;;8.57;51.41;101986.22;2116008;27;20281;-65
2022/04/30 00:45:58;;;;;;;8.07;3.95;;;;;;;8.55;51.19;101984.81;2116169;27;20299;-65
2022/04/30 00:47:01;;;;;;;8.75;3.97;;;;;;;8.56;50.80;101981.88;2106785;28;20310;-65
2022/04/30 00:48:08;;;;;;;8.75;3.88;;;;;;;8.55;50.92;101985.63;2106990;28;20748;-65
2022/04/30 00:49:15;;;;;;;7.10;3.25;;;;;;;8.54;50.88;101978.63;2108086;28;20337;-65
2022/04/30 00:50:26;;;;;;;9.23;2.90;;;;;;;8.50;51.13;101980.13;2108379;27;20889;-65
2022/04/30 00:51:32;;;;;;;7.97;3.42;;;;;;;8.47;51.43;101979.75;2115893;27;20288;-65
2022/04/30 00:52:39;;;;;;;7.72;3.55;;;;;;;8.43;51.77;101984.78;2116951;27;20297;-65
2022/04/30 00:53:52;;;;;;;7.20;3.33;;;;;;;8.35;51.83;101969.81;2116754;27;20300;-65
2022/04/30 00:55:02;;;;;;;7.60;3.47;;;;;;;8.28;52.40;101976.31;2116570;27;21174;-65
2022/04/30 00:56:12;;;;;;;8.05;3.22;;;;;;;8.22;52.40;101977.22;2117256;27;20625;-66
2022/04/30 00:57:22;;;;;;;7.57;3.42;;;;;;;8.20;52.02;101968.59;2106346;28;20555;-65
2022/04/30 00:58:29;;;;;;;8.57;3.63;;;;;;;8.19;51.97;101978.47;2105317;27;20300;-65
2022/04/30 00:59:33;;;;;;;7.05;3.58;;;;;;;8.17;51.98;101982.44;2099979;28;20290;-64
2022/04/30 01:00:38;;;;;;;10.60;4.15;;;;;;;8.15;51.90;101971.13;2108652;27;20300;-65
2022/04/30 01:01:52;;;;;;;7.97;4.30;;;;;;;8.13;51.32;101974.88;2103274;28;20290;-65
2022/04/30 01:03:13;;;;;;;6.18;3.97;;;;;;;8.12;51.22;101978.56;2094906;28;20298;-65
2022/04/30 01:04:20;;;;;;;9.95;4.25;;;;;;;8.15;51.06;101971.13;2097865;28;20300;-65
2022/04/30 01:05:23;;;;;;;8.98;4.10;;;;;;;8.17;51.39;101969.06;2104386;28;20297;-65
2022/04/30 01:06:50;;;;;;;7.07;3.78;;;;;;;8.20;51.42;101969.41;2091375;28;20295;-65
2022/04/30 01:08:15;;;;;;;8.57;4.15;;;;;;;8.25;51.72;101972.22;2110230;27;20767;-65
2022/04/30 01:09:25;;;;;;;7.43;3.65;;;;;;;8.28;51.51;101971.75;2106838;28;20292;-64
2022/04/30 01:10:29;;;;;;;9.30;4.30;;;;;;;8.31;51.28;101971.28;2107538;28;20290;-64
2022/04/30 01:11:32;;;;;;;10.27;4.10;;;;;;;8.32;51.42;101966.75;2116110;27;20292;-64
2022/04/30 01:12:35;;;;;;;7.20;4.07;;;;;;;8.34;51.64;101970.84;2114574;27;20311;-64
2022/04/30 01:13:38;;;;;;;11.02;4.38;;;;;;;8.35;51.02;101969.81;2115890;27;20783;-64
2022/04/30 01:14:41;;;;;;;10.38;4.55;;;;;;;8.39;51.70;101970.19;2115719;27;20610;-64
2022/04/30 01:15:44;;;;;;;12.30;4.57;;;;;;;8.41;51.16;101973.44;2107810;28;20301;-64
2022/04/30 01:16:50;;;;;;;8.77;4.57;;;;;;;8.41;50.56;101968.09;2115642;27;20289;-64
2022/04/30 01:17:55;;;;;;;12.98;4.65;;;;;;;8.42;50.86;101961.69;2116428;27;20308;-64
2022/04/30 01:18:59;;;;;;;6.97;3.88;;;;;;;8.44;50.36;101959.59;2116402;27;20645;-64
2022/04/30 01:20:04;;;;;;;8.25;4.05;;;;;;;8.47;50.54;101969.84;2116253;27;20287;-64
2022/04/30 01:21:12;;;;;;;11.25;4.35;;;;;;;8.51;50.69;101956.81;2107491;28;20293;-65
2022/04/30 01:22:14;;;;;;;8.30;4.28;;;;;;;8.52;50.60;101963.81;2108035;28;20757;-64
2022/04/30 01:23:19;;;;;;;11.73;4.10;;;;;;;8.53;50.25;101968.13;2115690;27;20307;-64
2022/04/30 01:24:27;;;;;;;10.13;4.30;;;;;;;8.53;50.70;101955.53;2116261;27;20301;-64
2022/04/30 01:25:31;;;;;;;8.57;4.32;;;;;;;8.51;50.75;101963.00;2115957;27;20289;-65
2022/04/30 01:26:34;;;;;;;10.98;4.80;;;;;;;8.52;50.91;101967.31;2106589;27;20488;-65
2022/04/30 01:27:40;;;;;;;9.90;4.18;;;;;;;8.52;51.03;101963.81;2098934;28;20304;-64
2022/04/30 01:28:46;;;;;;;10.40;3.95;;;;;;;8.55;51.21;101963.34;2085303;28;20298;-65
2022/04/30 01:29:49;;;;;;;8.73;3.83;;;;;;;8.56;51.44;101971.16;2106685;28;20289;-65
2022/04/30 01:30:54;;;;;;;8.23;3.63;;;;;;;8.58;51.83;101961.03;2115911;27;20301;-65
2022/04/30 01:37:25;;;;;;;7.03;3.03;;;;;;;8.59;54.65;101962.66;2110679;28;20830;-64
2022/04/30 01:38:27;;;;;;;8.45;3.40;;;;;;;8.58;54.97;101969.06;2114319;27;20312;-65
2022/04/30 01:39:33;;;;;;;5.30;2.92;;;;;;;8.62;55.31;101965.94;2106461;28;20316;-64
2022/04/30 01:40:35;;;;;;;10.32;3.08;;;;;;;8.66;55.44;101961.72;2099136;28;20294;-64
2022/04/30 01:41:43;;;;;;;7.70;3.22;;;;;;;8.65;55.64;101971.66;2115713;27;22086;-64
2022/04/30 01:42:47;;;;;;;6.07;3.10;;;;;;;8.65;55.79;101960.09;2106163;28;20304;-65
2022/04/30 01:43:49;;;;;;;6.32;3.30;;;;;;;8.66;55.37;101967.09;2107284;28;20273;-65
2022/04/30 01:44:54;;;;;;;7.53;2.78;;;;;;;8.66;55.62;101967.91;2116071;27;20756;-64
2022/04/30 01:46:02;;;;;;;4.40;2.80;;;;;;;8.67;55.47;101969.56;2116037;28;20712;-65
2022/04/30 01:47:06;;;;;;;6.53;3.20;;;;;;;8.69;56.47;101972.00;2115827;28;20281;-65
2022/04/30 01:48:14;;;;;;;3.90;2.65;;;;;;;8.70;56.64;101962.91;2097589;28;20289;-65
2022/04/30 01:49:18;;;;;;;8.57;3.05;;;;;;;8.68;56.30;101956.97;2092936;28;20275;-65
2022/04/30 01:50:26;;;;;;;4.13;2.58;;;;;;;8.71;56.41;101960.00;2085722;28;20272;-65
2022/04/30 01:51:31;;;;;;;7.22;3.05;;;;;;;8.70;56.64;101968.25;2089549;28;20284;-64
2022/04/30 01:52:33;;;;;;;4.35;2.80;;;;;;;8.72;57.03;101968.84;2099566;28;20292;-64
2022/04/30 01:53:40;;;;;;;5.70;2.55;;;;;;;8.70;56.77;101965.56;2098445;28;20306;-64
2022/04/30 01:54:45;;;;;;;7.40;3.10;;;;;;;8.69;57.19;101961.28;2108276;28;20649;-64
2022/04/30 01:55:52;;;;;;;4.70;3.10;;;;;;;8.71;57.48;101964.56;2116581;28;20285;-64
2022/04/30 01:57:22;;;;;;;6.18;2.95;;;;;;;8.69;56.68;101959.41;2106858;28;20827;-64
2022/04/30 01:58:44;;;;;;;6.95;3.40;;;;;;;8.67;56.59;101958.00;2098069;28;20302;-64
2022/04/30 01:59:46;;;;;;;6.80;3.13;;;;;;;8.65;56.93;101960.91;2111727;28;20280;-64
2022/04/30 02:00:49;;;;;;;4.60;3.05;;;;;;;8.65;56.43;101958.25;2116146;28;20854;-64
2022/04/30 02:02:12;;;;;;;8.88;3.17;;;;;;;8.59;56.87;101957.28;2109597;28;20285;-64
2022/04/30 02:03:16;;;;;;;7.15;3.35;;;;;;;8.58;56.73;101958.34;2090816;28;20287;-64
2022/04/30 02:04:19;;;;;;;9.40;3.45;;;;;;;8.55;56.92;101960.69;2083443;28;20299;-64
2022/04/30 02:05:22;;;;;;;7.82;3.53;;;;;;;8.53;57.14;101960.09;2107490;28;20277;-64
2022/04/30 02:06:24;;;;;;;7.43;3.58;;;;;;;8.50;57.26;101964.03;2115557;28;21116;-63
2022/04/30 02:07:29;;;;;;;10.07;3.50;;;;;;;8.47;57.08;101959.13;2115309;28;20299;-65
2022/04/30 02:08:35;;;;;;;5.53;3.30;;;;;;;8.44;57.39;101964.94;2107059;28;20277;-64
2022/04/30 02:09:53;;;;;;;10.48;3.70;;;;;;;8.44;56.72;101958.78;2109475;28;20301;-65
2022/04/30 02:10:56;;;;;;;6.15;3.28;;;;;;;8.40;56.90;101958.44;2115520;28;20168;-64
2022/04/30 02:12:04;;;;;;;5.97;2.90;;;;;;;8.39;56.61;101967.53;2115589;28;20297;-65
2022/04/30 02:13:13;;;;;;;8.23;3.03;;;;;;;8.35;56.61;101960.94;2107513;28;20301;-65
2022/04/30 02:14:18;;;;;;;8.48;3.40;;;;;;;8.30;56.24;101964.31;2107840;28;20305;-65
2022/04/30 02:15:24;;;;;;;6.53;3.40;;;;;;;8.29;56.68;101968.03;2115355;28;20289;-65
2022/04/30 02:16:32;;;;;;;6.50;3.47;;;;;;;8.26;56.68;101962.31;2116719;28;20641;-65
2022/04/30 02:17:38;;;;;;;10.68;3.72;;;;;;;8.23;56.40;101957.41;2116182;28;20289;-64
2022/04/30 02:18:40;;;;;;;10.35;3.95;;;;;;;8.20;55.92;101968.59;2106290;28;20293;-65
2022/04/30 02:21:09;;;;;;;7.05;3.60;;;;;;;8.16;55.66;101957.50;2105460;28;20285;-65
2022/04/30 02:22:12;;;;;;;8.52;3.70;;;;;;;8.13;55.81;101961.47;2114390;27;20291;-65
2022/04/30 02:23:17;;;;;;;9.73;4.13;;;;;;;8.17;55.54;101958.34;2107430;28;20301;-65
2022/04/30 02:24:20;;;;;;;7.68;3.78;;;;;;;8.17;55.61;101955.66;2107605;28;20297;-65
2022/04/30 02:25:26;;;;;;;10.40;4.65;;;;;;;8.19;55.99;101950.88;2115336;28;20288;-65
2022/04/30 02:26:30;;;;;;;9.38;4.30;;;;;;;8.17;55.50;101956.47;2107046;28;20297;-64
2022/04/30 02:27:33;;;;;;;10.45;4.03;;;;;;;8.20;55.99;101957.88;2107042;28;20296;-64
2022/04/30 02:28:36;;;;;;;10.63;3.72;;;;;;;8.23;55.68;101958.25;2099031;28;20298;-64
2022/04/30 02:29:39;;;;;;;6.40;3.78;;;;;;;8.24;56.09;101954.50;2113813;28;20316;-64
2022/04/30 02:30:42;;;;;;;7.88;3.90;;;;;;;8.27;55.94;101959.41;2115061;28;20288;-64
2022/04/30 02:31:45;;;;;;;8.80;3.80;;;;;;;8.28;56.64;101960.22;2107432;28;20665;-64
2022/04/30 02:32:55;;;;;;;8.45;3.78;;;;;;;8.28;56.91;101954.84;2095729;28;20291;-64
2022/04/30 02:33:58;;;;;;;7.45;3.70;;;;;;;8.30;57.19;101958.13;2102080;28;20290;-64
2022/04/30 02:35:02;;;;;;;8.43;4.22;;;;;;;8.33;57.51;101957.69;2098632;28;20298;-64
2022/04/30 02:36:08;;;;;;;8.98;4.22;;;;;;;8.27;57.73;101953.25;2098717;28;22084;-64
2022/04/30 02:37:16;;;;;;;9.57;4.13;;;;;;;8.30;57.86;101947.41;2108620;28;20297;-65
2022/04/30 02:38:20;;;;;;;6.90;3.95;;;;;;;8.31;58.44;101946.38;2116020;28;20292;-65
2022/04/30 02:39:22;;;;;;;10.65;3.60;;;;;;;8.33;58.30;101945.09;2107167;28;20286;-64
2022/04/30 02:40:27;;;;;;;8.75;3.90;;;;;;;8.36;58.73;101943.81;2107866;28;20304;-65
2022/04/30 02:41:29;;;;;;;8.80;4.22;;;;;;;8.36;58.58;101943.81;2115769;28;20290;-64
2022/04/30 02:42:32;;;;;;;8.55;3.83;;;;;;;8.38;58.96;101946.25;2115986;28;20793;-64
2022/04/30 02:43:35;;;;;;;8.13;4.60;;;;;;;8.41;59.25;101938.59;2106634;28;20293;-64
2022/04/30 02:44:38;;;;;;;11.25;4.80;;;;;;;8.42;59.15;101939.41;2114976;28;20293;-64
2022/04/30 02:45:43;;;;;;;8.07;4.45;;;;;;;8.42;59.43;101937.59;2116292;28;20286;-64
2022/04/30 02:46:44;;;;;;;9.15;4.32;;;;;;;8.46;59.42;101946.78;2114919;28;20294;-64
2022/04/30 02:47:55;;;;;;;7.85;4.53;;;;;;;8.44;59.51;101938.16;2107586;28;20285;-64
2022/04/30 02:48:56;;;;;;;;;;;;;;;8.49;59.55;101935.59;2115276;28;20285;-64
2022/04/30 02:49:58;;;;;;;11.25;4.90;;;;;;;8.50;59.82;101939.91;2108170;28;20390;-64
2022/04/30 02:51:04;;;;;;;10.52;5.72;;;;;;;8.49;60.30;101940.16;2115995;28;20364;-65
2022/04/30 02:52:09;;;;;;;15.00;6.15;;;;;;;8.47;60.46;101942.25;2116044;28;20288;-65
2022/04/30 02:53:18;;;;;;;14.52;6.10;;;;;;;8.46;60.31;101937.94;2110279;28;20292;-64
2022/04/30 02:54:20;;;;;;;17.73;6.22;;;;;;;8.45;60.57;101938.97;2108186;28;20289;-64
2022/04/30 02:55:23;;;;;;;18.50;6.57;;;;;;;8.44;61.00;101938.16;2114526;28;20278;-65
2022/04/30 02:56:27;;;;;;;18.83;7.03;;;;;;;8.46;61.14;101938.75;2115096;27;20293;-64
2022/04/30 03:00:31;;;;;;;17.27;6.00;;;;;;;8.48;61.89;101928.63;2110931;27;20370;-66
2022/04/30 03:02:01;;;;;;;;;;;;;;;8.47;62.08;101926.16;2107192;27;20827;-65
2022/04/30 03:03:19;;;;;;;14.88;6.10;;;;;;;8.49;62.76;101924.88;2117414;27;19911;-65
2022/04/30 03:04:25;;;;;;;13.98;6.68;;;;;;;8.46;63.12;101930.69;2100609;28;20283;-65
2022/04/30 03:05:28;;;;;;;17.38;7.07;;;;;;;8.46;62.75;101919.16;2094817;28;20049;-65
2022/04/30 03:06:36;;;;;;;15.48;6.32;;;;;;;8.45;63.18;101923.72;2104881;27;20293;-69
2022/04/30 03:07:41;;;;;;;14.88;6.53;;;;;;;8.44;62.96;101921.25;2117654;27;20290;-69
2022/04/30 03:08:49;;;;;;;14.55;6.70;;;;;;;8.45;63.71;101926.41;2117198;27;20284;-69
2022/04/30 03:09:57;;;;;;;14.95;7.05;;;;;;;8.44;63.93;101922.06;2108366;27;20290;-68
2022/04/30 03:11:01;;;;;;;14.65;6.90;;;;;;;8.46;64.02;101922.66;2116922;27;20819;-69
2022/04/30 03:12:08;;;;;;;12.30;6.40;;;;;;;8.39;64.60;101924.63;2115519;27;20278;-69
2022/04/30 03:13:13;;;;;;;13.88;6.05;;;;;;;8.36;63.82;101927.75;2108399;28;20285;-72
2022/04/30 03:14:16;;;;;;;13.05;6.30;;;;;;;8.36;63.90;101927.75;2116533;27;20633;-72
2022/04/30 03:15:21;;;;;;;13.48;6.38;;;;;;;8.23;63.51;101926.09;2117307;27;20281;-71
2022/04/30 03:21:56;;;;;;;12.48;5.78;;;;;;;8.07;61.75;101922.19;2108562;28;20282;-67
2022/04/30 03:23:04;;;;;;;10.60;6.00;;;;;;;8.10;62.31;101920.91;2088042;28;20299;-67
2022/04/30 03:24:13;;;;;;;11.60;5.30;;;;;;;8.09;62.49;101920.09;2095842;27;20663;-68
2022/04/30 03:25:20;;;;;;;12.93;5.47;;;;;;;8.15;62.11;101917.56;2109852;27;20278;-66
2022/04/30 03:26:26;;;;;;;13.50;5.30;;;;;;;8.17;61.63;101920.84;2117082;27;20285;-66
2022/04/30 03:27:28;;;;;;;11.73;5.90;;;;;;;8.15;60.77;101926.41;2116388;27;20289;-66
2022/04/30 03:28:33;;;;;;;14.95;5.63;;;;;;;8.18;60.94;101925.94;2108186;28;20293;-66
2022/04/30 03:29:35;;;;;;;12.98;5.18;;;;;;;8.15;60.23;101920.22;2116772;27;20283;-66
2022/04/30 03:30:40;;;;;;;9.85;4.70;;;;;;;8.12;59.45;101918.81;2116121;27;20657;-70
2022/04/30 03:31:45;;;;;;;13.73;4.90;;;;;;;8.05;59.60;101923.47;2100666;28;20282;-70
2022/04/30 03:32:48;;;;;;;10.68;4.72;;;;;;;8.03;59.45;101914.84;2100927;27;20352;-70
2022/04/30 03:33:51;;;;;;;8.85;4.78;;;;;;;7.99;59.20;101917.16;2115706;27;20276;-70
2022/04/30 03:34:55;;;;;;;13.20;4.80;;;;;;;8.00;59.06;101921.44;2107105;28;20296;-69
2022/04/30 03:35:59;;;;;;;11.65;4.53;;;;;;;8.01;59.16;101925.78;2108891;27;20293;-71
2022/04/30 03:37:03;;;;;;;10.55;4.60;;;;;;;8.00;58.63;101920.63;2118261;27;20648;-72
2022/04/30 03:38:09;;;;;;;12.15;4.40;;;;;;;8.00;58.37;101921.44;2106238;28;20292;-71
2022/04/30 03:39:12;;;;;;;7.25;4.60;;;;;;;7.99;58.58;101917.16;2108265;28;20645;-71
2022/04/30 03:40:18;;;;;;;9.50;4.20;;;;;;;7.98;58.71;101926.25;2116019;27;20296;-71
2022/04/30 03:41:25;;;;;;;9.10;4.68;;;;;;;7.95;58.81;101918.66;2117112;27;20296;-71
2022/04/30 03:42:28;;;;;;;12.70;4.57;;;;;;;7.98;58.68;101923.56;2116473;27;20802;-71
2022/04/30 03:43:35;;;;;;;11.32;4.88;;;;;;;8.00;59.00;101920.63;2116058;27;20300;-71
2022/04/30 03:44:39;;;;;;;10.38;4.93;;;;;;;7.99;58.54;101919.84;2108887;27;20285;-71
2022/04/30 03:45:42;;;;;;;11.98;5.10;;;;;;;7.99;59.14;101917.16;2109016;27;20044;-71
2022/04/30 03:46:44;;;;;;;11.15;5.20;;;;;;;8.03;59.04;101923.69;2092458;28;20678;-70
2022/04/30 03:47:46;;;;;;;13.57;4.97;;;;;;;8.05;58.81;101923.47;2083486;28;20675;-69
2022/04/30 03:48:53;;;;;;;11.15;5.18;;;;;;;8.09;58.93;101920.09;2100529;28;20282;-70
2022/04/30 03:49:55;;;;;;;15.93;5.03;;;;;;;8.15;58.79;101917.56;2100648;28;20282;-71
2022/04/30 03:51:00;;;;;;;12.55;5.20;;;;;;;8.17;58.86;101910.13;2108504;28;20295;-71
2022/04/30 03:52:06;;;;;;;10.48;6.25;;;;;;;8.20;59.79;101917.69;2100456;28;20279;-64
2022/04/30 03:53:11;;;;;;;13.93;5.00;;;;;;;8.20;61.08;101921.19;2105752;27;20341;-64
2022/04/30 03:54:13;;;;;;;10.15;5.75;;;;;;;8.26;61.46;101916.75;2116164;27;20290;-64
2022/04/30 03:55:17;;;;;;;8.52;4.20;;;;;;;8.33;61.30;101922.84;2108791;27;20299;-64
2022/04/30 03:56:24;;;;;;;15.40;4.65;;;;;;;8.46;62.02;101919.97;2108759;28;20301;-64
2022/04/30 03:57:28;;;;;;;8.73;4.40;;;;;;;8.57;62.08;101918.34;2116918;27;20276;-64
2022/04/30 03:58:33;;;;;;;11.23;4.95;;;;;;;8.72;61.51;101920.59;2117263;27;20289;-64
2022/04/30 03:59:36;;;;;;;10.23;4.60;;;;;;;8.79;61.18;101926.66;2116227;27;20308;-64
2022/04/30 04:00:39;;;;;;;13.88;5.25;;;;;;;8.88;60.73;101917.22;2116763;27;20296;-64
2022/04/30 04:01:42;;;;;;;12.55;5.20;;;;;;;8.99;60.56;101919.09;2117957;27;20632;-64
2022/04/30 04:02:48;;;;;;;10.88;5.47;;;;;;;9.08;60.45;101916.88;2116113;27;20788;-65
2022/04/30 04:03:53;;;;;;;12.27;5.82;;;;;;;9.22;59.95;101920.09;2116744;27;20285;-64
2022/04/30 04:04:56;;;;;;;9.02;5.55;;;;;;;9.31;59.45;101921.38;2116252;27;20296;-65
2022/04/30 04:06:01;;;;;;;19.73;6.28;;;;;;;9.39;58.94;101928.22;2117137;27;20787;-64
2022/04/30 04:07:05;;;;;;;9.73;5.20;;;;;;;9.53;58.90;101924.25;2111442;28;20349;-64
2022/04/30 04:08:12;;;;;;;13.40;5.85;;;;;;;9.66;58.27;101925.84;2096053;28;20302;-65
2022/04/30 04:09:14;;;;;;;12.65;5.40;;;;;;;9.79;58.17;101922.84;2076452;28;20319;-65
2022/04/30 04:10:17;;;;;;;11.55;5.20;;;;;;;9.91;58.31;101922.81;2084991;28;20310;-64
2022/04/30 04:11:26;;;;;;;9.55;4.35;;;;;;;10.01;58.04;101924.88;2108285;28;20698;-64
2022/04/30 04:12:30;;;;;;;9.10;4.47;;;;;;;9.84;58.48;101919.47;2100828;28;20295;-64
2022/04/30 04:17:45;;;;;;;18.35;5.60;;;;;;;10.18;58.39;101934.63;2115132;27;20288;-64
2022/04/30 04:18:51;;;;;;;10.77;4.90;;;;;;;10.32;57.58;101937.81;2093660;28;20298;-65
2022/04/30 04:19:52;;;;;;;29.30;6.72;;;;;;;10.53;56.80;101927.41;2100738;27;20290;-65
2022/04/30 04:20:57;;;;;;;23.45;5.80;;;;;;;10.68;56.23;101931.16;2100265;28;20298;-65
2022/04/30 04:22:03;;;;;;;25.83;5.82;;;;;;;10.86;55.83;101921.19;2093278;28;20298;-64
2022/04/30 04:23:07;;;;;;;27.02;5.63;;;;;;;10.97;55.28;101920.28;2100730;27;20316;-65
2022/04/30 04:26:55;;;;;;;13.23;5.15;;;;;;;11.36;53.45;101928.34;2101282;28;20294;-64
2022/04/30 04:28:01;;;;;;;12.23;5.07;;;;;;;11.50;52.82;101934.16;2106588;27;20285;-64
2022/04/30 04:29:05;;;;;;;14.25;5.97;;;;;;;11.67;52.89;101924.13;2106434;27;20300;-65
2022/04/30 04:30:11;;;;;;;14.07;5.65;;;;;;;11.81;52.22;101928.06;2105248;27;20305;-65
2022/04/30 04:31:22;;;;;;;12.30;6.28;;;;;;;11.97;51.88;101925.56;2106225;28;20301;-64
2022/04/30 04:32:26;;;;;;;16.17;6.10;;;;;;;12.07;51.00;101922.94;2099406;28;20270;-65
2022/04/30 04:33:28;;;;;;;13.63;6.25;;;;;;;12.22;50.63;101917.72;2091568;28;20294;-65
2022/04/30 04:34:31;;;;;;;17.65;6.93;;;;;;;12.35;50.25;101926.44;2106881;28;20293;-65
2022/04/30 04:35:44;;;;;;;12.90;6.30;;;;;;;12.35;50.25;101921.06;2106374;28;20282;-65
2022/04/30 04:36:48;;;;;;;27.65;6.30;;;;;;;12.37;49.61;101924.31;2108316;27;20352;-65
2022/04/30 04:37:53;;;;;;;18.90;6.70;;;;;;;12.44;49.88;101922.22;2105005;28;20301;-65
2022/04/30 04:38:56;;;;;;;21.42;7.70;;;;;;;12.57;49.36;101926.34;2106217;28;20294;-65
2022/04/30 04:39:58;;;;;;;26.63;7.25;;;;;;;12.65;48.92;101928.59;2115704;27;20296;-64
2022/04/30 04:41:06;;;;;;;29.02;7.05;;;;;;;12.77;48.58;101923.81;2114180;27;20293;-64
2022/04/30 04:42:10;;;;;;;14.73;5.65;;;;;;;12.92;48.07;101920.38;2114610;27;20292;-64
2022/04/30 04:43:13;;;;;;;10.32;5.38;;;;;;;13.07;48.12;101917.78;2115222;27;20643;-65
2022/04/30 04:44:21;;;;;;;13.23;6.15;;;;;;;13.28;48.08;101921.44;2115556;27;20645;-64
2022/04/30 04:45:27;;;;;;;8.98;5.07;;;;;;;13.42;47.83;101927.97;2114529;27;20288;-65
2022/04/30 04:46:32;;;;;;;13.10;5.90;;;;;;;13.53;47.67;101923.44;2115748;27;20058;-64
2022/04/30 04:47:41;;;;;;;12.70;5.43;;;;;;;13.64;46.91;101932.38;2116014;27;20641;-64
2022/04/30 04:48:45;;;;;;;14.65;5.90;;;;;;;13.71;46.61;101930.22;2097845;28;20361;-65
2022/04/30 04:49:50;;;;;;;13.55;6.13;;;;;;;13.74;46.18;101928.88;2091224;28;20302;-64
2022/04/30 04:50:58;;;;;;;18.27;5.13;;;;;;;13.83;45.66;101930.00;2106522;27;20285;-64
2022/04/30 04:52:04;;;;;;;14.65;5.47;;;;;;;13.93;46.08;101930.00;2123261;27;20285;-64
2022/04/30 04:53:14;;;;;;;9.77;5.55;;;;;;;14.09;45.99;101928.16;2113993;27;20285;-64
2022/04/30 04:54:20;;;;;;;8.25;5.13;;;;;;;14.25;45.80;101916.28;2109138;27;20058;-64
2022/04/30 04:55:24;;;;;;;13.80;5.50;;;;;;;14.38;45.29;101925.75;2113560;27;20280;-64
2022/04/30 04:56:26;;;;;;;16.98;4.97;;;;;;;14.52;45.08;101929.56;2115051;27;20284;-64
2022/04/30 04:57:28;;;;;;;13.15;4.82;;;;;;;14.66;45.21;101929.00;2115047;27;20303;-64
2022/04/30 04:58:33;;;;;;;11.02;5.10;;;;;;;14.76;44.68;101931.72;2097985;28;20283;-64
2022/04/30 04:59:37;;;;;;;10.32;5.32;;;;;;;14.83;45.00;101926.81;2093082;28;20045;-64
2022/04/30 05:00:39;;;;;;;10.35;4.82;;;;;;;14.94;44.59;101933.03;2101826;27;20064;-64
2022/04/30 05:01:47;;;;;;;11.00;5.00;;;;;;;15.06;44.23;101925.41;2111333;27;20305;-63
2022/04/30 05:02:54;;;;;;;13.05;5.07;;;;;;;15.18;43.76;101925.13;2098221;28;20036;-63
2022/04/30 05:03:56;;;;;;;9.90;4.60;;;;;;;15.18;43.93;101919.69;2090355;28;20060;-64
2022/04/30 05:05:02;;;;;;;13.32;4.32;;;;;;;15.01;44.38;101928.97;2098504;28;20044;-63
2022/04/30 05:06:05;;;;;;;10.50;4.50;;;;;;;15.23;44.54;101925.13;2095923;28;20045;-64
2022/04/30 05:07:10;;;;;;;12.18;4.15;;;;;;;15.24;44.10;101924.00;2089228;28;20420;-63
2022/04/30 05:08:14;;;;;;;9.18;4.60;;;;;;;15.19;44.42;101924.81;2094948;28;20040;-63
2022/04/30 05:09:21;;;;;;;10.40;5.00;;;;;;;15.38;43.81;101929.63;2098310;28;20044;-63
2022/04/30 05:10:28;;;;;;;20.10;10.05;;;;;;;15.67;42.99;101924.41;2114639;27;20051;-63
2022/04/30 05:11:32;;;;;;;13.60;6.57;;;;;;;15.82;42.91;101920.78;2114172;27;20061;-68
2022/04/30 05:12:36;;;;;;;9.90;4.95;;;;;;;15.92;42.77;101921.53;2097404;28;20060;-63
2022/04/30 05:13:38;;;;;;;12.75;4.68;;;;;;;16.16;42.40;101928.97;2106649;27;20066;-63
2022/04/30 05:14:41;;;;;;;8.48;4.15;;;;;;;16.22;42.55;101925.13;2105644;28;20102;-63
2022/04/30 05:15:50;;;;;;;9.07;5.03;;;;;;;16.21;42.04;101927.03;2085063;28;20037;-63
2022/04/30 05:16:54;;;;;;;10.27;4.30;;;;;;;16.39;42.07;101920.13;2091350;28;20053;-63
2022/04/30 05:17:59;;;;;;;8.80;4.60;;;;;;;16.63;41.85;101922.06;2105600;28;20059;-63
2022/04/30 05:19:05;;;;;;;10.68;4.53;;;;;;;16.69;41.45;101927.16;2097217;28;20059;-63
2022/04/30 05:20:12;;;;;;;9.10;4.50;;;;;;;17.00;41.33;101921.47;2089260;28;20120;-63
2022/04/30 05:21:15;;;;;;;11.65;4.43;;;;;;;17.29;41.00;101921.38;2092922;28;20055;-64
2022/04/30 05:22:18;;;;;;;9.55;4.75;;;;;;;17.60;40.29;101921.00;2097636;28;20064;-62
2022/04/30 05:23:22;;;;;;;12.85;4.85;;;;;;;17.79;39.97;101919.13;2098556;28;20056;-64
2022/04/30 05:24:27;;;;;;;13.77;4.80;;;;;;;18.12;39.42;101919.19;2090461;28;20053;-67
2022/04/30 05:25:30;;;;;;;11.82;4.60;;;;;;;18.44;38.82;101925.75;2106744;28;20067;-64
2022/04/30 05:26:35;;;;;;;10.15;4.18;;;;;;;18.62;38.62;101922.16;2111379;27;20043;-64
2022/04/30 05:27:38;;;;;;;7.72;3.47;;;;;;;18.65;38.47;101924.28;2113910;27;20058;-63